createdAt,value
2023-05-04T00:00:40.230Z,99.99
2023-05-04T00:01:40.256Z,99.99
2023-05-04T00:02:40.339Z,99.99
2023-05-04T00:03:43.160Z,99.99
2023-05-04T00:04:40.361Z,99.99
2023-05-04T00:05:42.996Z,99.99
2023-05-04T00:06:40.381Z,99.99
2023-05-04T00:07:40.410Z,99.99
2023-05-04T00:09:22.991Z,99.99
2023-05-04T00:10:23.011Z,99.99
2023-05-04T00:11:23.029Z,99.99
2023-05-04T00:12:23.054Z,99.99
2023-05-04T00:13:23.081Z,99.99
2023-05-04T00:14:23.122Z,99.99
2023-05-04T00:15:23.139Z,99.99
2023-05-04T00:16:23.277Z,99.99
2023-05-04T00:17:23.215Z,99.99
2023-05-04T00:18:23.206Z,99.99
2023-05-04T00:19:23.236Z,99.99
2023-05-04T00:20:23.257Z,99.99
2023-05-04T00:21:23.297Z,99.99
2023-05-04T00:22:23.308Z,99.99
2023-05-04T00:23:23.336Z,99.99
2023-05-04T00:24:23.357Z,99.99
2023-05-04T00:25:23.397Z,99.99
2023-05-04T00:26:23.417Z,99.99
2023-05-04T00:27:23.468Z,99.99
2023-05-04T00:28:23.512Z,99.99
2023-05-04T00:29:23.514Z,99.99
2023-05-04T00:30:23.528Z,99.99
2023-05-04T00:31:23.578Z,99.99
2023-05-04T00:32:23.609Z,99.99
2023-05-04T00:33:23.597Z,99.99
2023-05-04T00:34:23.648Z,99.99
2023-05-04T00:35:23.633Z,99.99
2023-05-04T00:36:23.657Z,99.99
2023-05-04T00:37:23.701Z,99.99
2023-05-04T00:38:36.446Z,99.99
2023-05-04T00:39:24.948Z,99.99
2023-05-04T00:40:23.757Z,99.99
2023-05-04T00:41:23.781Z,99.99
2023-05-04T00:42:23.816Z,99.99
2023-05-04T00:43:23.830Z,99.99
2023-05-04T00:44:24.112Z,99.99
2023-05-04T00:45:23.880Z,99.99
2023-05-04T00:46:23.940Z,99.99
2023-05-04T00:47:24.014Z,99.99
2023-05-04T00:48:23.957Z,99.99
2023-05-04T00:49:25.090Z,99.99
2023-05-04T00:50:24.009Z,99.99
2023-05-04T00:51:24.031Z,99.99
2023-05-04T00:52:24.062Z,99.99
2023-05-04T00:53:24.135Z,99.99
2023-05-04T00:54:24.203Z,99.99
2023-05-04T00:55:24.129Z,99.99
2023-05-04T00:56:24.174Z,99.99
2023-05-04T00:57:24.330Z,99.99
2023-05-04T00:58:24.233Z,99.99
2023-05-04T00:59:24.235Z,99.99
2023-05-04T01:00:24.271Z,99.99
2023-05-04T01:01:24.484Z,99.99
2023-05-04T01:02:24.344Z,99.99
2023-05-04T01:03:24.391Z,99.99
2023-05-04T01:04:24.360Z,99.99
2023-05-04T01:05:24.384Z,99.99
2023-05-04T01:06:24.420Z,99.99
2023-05-04T01:07:24.433Z,99.99
2023-05-04T01:08:24.458Z,99.99
2023-05-04T01:09:24.506Z,99.99
2023-05-04T01:10:24.510Z,99.99
2023-05-04T01:11:24.532Z,99.99
2023-05-04T01:12:24.560Z,99.99
2023-05-04T01:13:24.584Z,99.99
2023-05-04T01:14:24.609Z,99.99
2023-05-04T01:15:24.635Z,99.99
2023-05-04T01:16:24.675Z,99.99
2023-05-04T01:18:12.292Z,99.99
2023-05-04T01:19:12.269Z,99.99
2023-05-04T01:20:12.296Z,99.99
2023-05-04T01:21:12.318Z,99.99
2023-05-04T01:22:12.341Z,99.99
2023-05-04T01:23:12.377Z,99.99
2023-05-04T01:24:12.405Z,99.99
2023-05-04T01:25:12.481Z,99.99
2023-05-04T01:26:12.443Z,99.99
2023-05-04T01:27:12.471Z,99.99
2023-05-04T01:28:12.492Z,99.99
2023-05-04T01:29:12.519Z,99.99
2023-05-04T01:30:12.563Z,99.99
2023-05-04T01:31:12.597Z,99.99
2023-05-04T01:32:12.590Z,99.99
2023-05-04T01:33:12.621Z,99.99
2023-05-04T01:34:12.647Z,99.99
2023-05-04T01:35:12.670Z,99.99
2023-05-04T01:36:12.692Z,99.99
2023-05-04T01:37:12.716Z,99.99
2023-05-04T01:38:12.739Z,99.99
2023-05-04T01:39:12.770Z,99.99
2023-05-04T01:40:12.811Z,99.99
2023-05-04T01:41:12.847Z,99.99
2023-05-04T01:42:12.841Z,99.99
2023-05-04T01:43:12.875Z,99.99
2023-05-04T01:44:12.890Z,99.99
2023-05-04T01:45:12.919Z,99.99
2023-05-04T01:46:12.955Z,99.99
2023-05-04T01:47:12.977Z,99.99
2023-05-04T01:48:12.987Z,99.99
2023-05-04T01:49:13.017Z,99.99
2023-05-04T01:50:13.063Z,99.99
2023-05-04T01:51:13.062Z,99.99
2023-05-04T01:52:13.088Z,99.99
2023-05-04T01:53:13.111Z,99.99
2023-05-04T01:54:13.136Z,99.99
2023-05-04T01:55:13.165Z,99.99
2023-05-04T01:56:13.183Z,99.99
2023-05-04T01:57:13.238Z,99.99
2023-05-04T01:58:13.234Z,99.99
2023-05-04T01:59:13.270Z,99.99
2023-05-04T02:00:13.283Z,99.99
2023-05-04T02:01:13.358Z,99.99
2023-05-04T02:02:13.334Z,99.99
2023-05-04T02:03:13.412Z,99.99
2023-05-04T02:04:13.423Z,99.99
2023-05-04T02:05:13.421Z,99.99
2023-05-04T02:06:13.436Z,99.99
2023-05-04T02:07:13.465Z,99.99
2023-05-04T02:08:13.489Z,99.99
2023-05-04T02:09:13.508Z,99.99
2023-05-04T02:10:13.536Z,99.99
2023-05-04T02:11:13.561Z,99.99
2023-05-04T02:12:13.583Z,99.99
2023-05-04T02:13:13.693Z,99.99
2023-05-04T02:14:13.633Z,99.99
2023-05-04T02:15:13.659Z,99.99
2023-05-04T02:16:13.772Z,99.99
2023-05-04T02:17:13.713Z,99.99
2023-05-04T02:18:13.768Z,99.99
2023-05-04T02:19:13.766Z,99.99
2023-05-04T02:20:13.780Z,99.99
2023-05-04T02:21:13.806Z,99.99
2023-05-04T02:22:13.830Z,99.99
2023-05-04T02:23:13.869Z,99.99
2023-05-04T02:24:13.879Z,99.99
2023-05-04T02:25:13.911Z,99.99
2023-05-04T02:26:13.939Z,99.99
2023-05-04T02:27:13.955Z,99.99
2023-05-04T02:28:13.979Z,99.99
2023-05-04T02:29:14.168Z,99.99
2023-05-04T02:30:14.032Z,99.99
2023-05-04T02:31:14.099Z,99.99
2023-05-04T02:32:14.090Z,99.99
2023-05-04T02:33:14.126Z,99.99
2023-05-04T02:34:14.134Z,99.99
2023-05-04T02:35:14.159Z,99.99
2023-05-04T02:36:14.180Z,99.99
2023-05-04T02:37:14.208Z,99.99
2023-05-04T02:38:14.237Z,99.99
2023-05-04T02:39:14.254Z,99.99
2023-05-04T02:40:14.274Z,99.99
2023-05-04T02:41:14.306Z,99.99
2023-05-04T02:42:14.330Z,99.99
2023-05-04T02:43:14.359Z,99.99
2023-05-04T02:44:14.376Z,99.99
2023-05-04T02:45:14.471Z,99.99
2023-05-04T02:46:14.497Z,99.99
2023-05-04T02:47:14.459Z,99.99
2023-05-04T02:48:14.481Z,99.99
2023-05-04T02:49:14.502Z,99.99
2023-05-04T02:50:14.528Z,99.99
2023-05-04T02:51:14.557Z,99.99
2023-05-04T02:52:14.578Z,99.99
2023-05-04T02:53:14.610Z,99.99
2023-05-04T02:54:14.635Z,99.99
2023-05-04T02:55:14.653Z,99.99
2023-05-04T02:56:14.696Z,99.99
2023-05-04T02:57:14.702Z,99.99
2023-05-04T02:58:14.732Z,99.99
2023-05-04T02:59:14.756Z,99.99
2023-05-04T03:00:14.776Z,99.99
2023-05-04T03:01:15.015Z,99.99
2023-05-04T03:02:14.826Z,99.99
2023-05-04T03:03:14.852Z,99.99
2023-05-04T03:04:14.931Z,99.99
2023-05-04T03:05:14.927Z,99.99
2023-05-04T03:06:14.926Z,99.99
2023-05-04T03:07:14.953Z,99.99
2023-05-04T03:08:14.974Z,99.99
2023-05-04T03:09:15.014Z,99.99
2023-05-04T03:10:15.024Z,99.99
2023-05-04T03:11:15.052Z,99.99
2023-05-04T03:12:15.080Z,99.99
2023-05-04T03:13:15.177Z,99.99
2023-05-04T03:14:15.128Z,99.99
2023-05-04T03:15:15.150Z,99.99
2023-05-04T03:16:15.200Z,99.99
2023-05-04T03:17:15.217Z,99.99
2023-05-04T03:18:15.285Z,99.99
2023-05-04T03:19:15.247Z,99.99
2023-05-04T03:20:15.282Z,99.99
2023-05-04T03:21:15.297Z,99.99
2023-05-04T03:22:15.320Z,99.99
2023-05-04T03:23:15.350Z,99.99
2023-05-04T03:24:15.367Z,99.99
2023-05-04T03:25:15.396Z,99.99
2023-05-04T03:26:15.419Z,99.99
2023-05-04T03:27:15.444Z,99.99
2023-05-04T03:28:15.478Z,99.99
2023-05-04T03:29:15.498Z,99.99
2023-05-04T03:30:15.514Z,99.99
2023-05-04T03:31:15.557Z,99.99
2023-05-04T03:32:15.660Z,99.99
2023-05-04T03:33:15.616Z,99.99
2023-05-04T03:34:15.617Z,99.99
2023-05-04T03:35:19.088Z,99.99
2023-05-04T03:36:15.666Z,99.99
2023-05-04T03:37:15.696Z,99.99
2023-05-04T03:38:15.727Z,99.99
2023-05-04T03:39:15.739Z,99.99
2023-05-04T03:40:15.765Z,99.99
2023-05-04T03:41:15.787Z,99.99
2023-05-04T03:42:15.812Z,99.99
2023-05-04T03:43:15.840Z,99.99
2023-05-04T03:44:15.861Z,99.99
2023-05-04T03:45:15.886Z,99.99
2023-05-04T03:46:15.933Z,99.99
2023-05-04T03:47:15.940Z,99.99
2023-05-04T03:48:15.962Z,99.99
2023-05-04T03:49:16.008Z,99.99
2023-05-04T03:50:16.039Z,99.99
2023-05-04T03:51:16.034Z,99.99
2023-05-04T03:52:16.058Z,99.99
2023-05-04T03:53:16.084Z,99.99
2023-05-04T03:54:16.107Z,99.99
2023-05-04T03:55:16.133Z,99.99
2023-05-04T03:56:16.156Z,99.99
2023-05-04T03:57:16.187Z,99.99
2023-05-04T03:58:16.200Z,99.99
2023-05-04T03:59:16.230Z,99.99
2023-05-04T04:00:16.258Z,99.99
2023-05-04T04:01:16.286Z,99.99
2023-05-04T04:02:16.346Z,99.99
2023-05-04T04:03:16.592Z,99.99
2023-05-04T04:04:16.450Z,99.99
2023-05-04T04:05:16.428Z,99.99
2023-05-04T04:06:16.405Z,99.99
2023-05-04T04:07:16.426Z,99.99
2023-05-04T04:08:16.453Z,99.99
2023-05-04T04:09:16.476Z,99.99
2023-05-04T04:10:16.502Z,99.99
2023-05-04T04:11:16.528Z,99.99
2023-05-04T04:12:16.546Z,99.99
2023-05-04T04:13:16.680Z,99.99
2023-05-04T04:14:16.604Z,99.99
2023-05-04T04:15:16.631Z,99.99
2023-05-04T04:16:16.695Z,99.99
2023-05-04T04:17:16.672Z,99.99
2023-05-04T04:18:16.695Z,99.99
2023-05-04T04:19:16.721Z,99.99
2023-05-04T04:20:16.744Z,99.99
2023-05-04T04:21:16.793Z,99.99
2023-05-04T04:22:16.797Z,99.99
2023-05-04T04:23:16.824Z,99.99
2023-05-04T04:24:16.838Z,99.99
2023-05-04T04:25:16.869Z,99.99
2023-05-04T04:26:16.889Z,99.99
2023-05-04T04:27:16.916Z,99.99
2023-05-04T04:28:16.941Z,99.99
2023-05-04T04:29:16.965Z,99.99
2023-05-04T04:30:16.988Z,99.99
2023-05-04T04:31:17.046Z,99.99
2023-05-04T04:32:17.036Z,99.99
2023-05-04T04:33:17.103Z,99.99
2023-05-04T04:34:17.089Z,99.99
2023-05-04T04:35:17.116Z,99.99
2023-05-04T04:36:17.135Z,99.99
2023-05-04T04:37:17.181Z,99.99
2023-05-04T04:38:17.184Z,99.99
2023-05-04T04:39:17.326Z,99.99
2023-05-04T04:40:17.240Z,99.99
2023-05-04T04:41:17.267Z,99.99
2023-05-04T04:42:17.285Z,99.99
2023-05-04T04:43:17.315Z,99.99
2023-05-04T04:44:17.341Z,99.99
2023-05-04T04:45:17.374Z,99.99
2023-05-04T04:46:17.412Z,99.99
2023-05-04T04:47:17.413Z,99.99
2023-05-04T04:48:17.440Z,99.99
2023-05-04T04:49:17.457Z,99.99
2023-05-04T04:50:17.479Z,99.99
2023-05-04T04:51:17.507Z,99.99
2023-05-04T04:52:17.530Z,99.99
2023-05-04T04:53:17.587Z,99.99
2023-05-04T04:54:17.582Z,99.99
2023-05-04T04:55:17.609Z,99.99
2023-05-04T04:56:17.633Z,99.99
2023-05-04T04:57:17.653Z,99.99
2023-05-04T04:58:17.677Z,99.99
2023-05-04T04:59:17.704Z,99.99
2023-05-04T05:00:17.741Z,99.99
2023-05-04T05:01:17.923Z,99.99
2023-05-04T05:02:17.784Z,99.99
2023-05-04T05:03:17.841Z,99.99
2023-05-04T05:04:17.837Z,99.99
2023-05-04T05:05:17.853Z,99.99
2023-05-04T05:06:17.877Z,99.99
2023-05-04T05:07:17.905Z,99.99
2023-05-04T05:08:17.924Z,99.99
2023-05-04T05:09:17.976Z,99.99
2023-05-04T05:10:17.984Z,99.99
2023-05-04T05:11:18.004Z,99.99
2023-05-04T05:12:18.027Z,99.99
2023-05-04T05:13:18.139Z,99.99
2023-05-04T05:14:18.080Z,99.99
2023-05-04T05:15:18.110Z,99.99
2023-05-04T05:16:18.205Z,99.99
2023-05-04T05:17:18.157Z,99.99
2023-05-04T05:18:18.181Z,99.99
2023-05-04T05:19:18.203Z,99.99
2023-05-04T05:20:18.232Z,99.99
2023-05-04T05:21:18.255Z,99.99
2023-05-04T05:22:18.300Z,99.99
2023-05-04T05:23:18.305Z,99.99
2023-05-04T05:24:18.396Z,99.99
2023-05-04T05:25:18.452Z,99.99
2023-05-04T05:26:18.384Z,99.99
2023-05-04T05:27:18.412Z,99.99
2023-05-04T05:28:18.443Z,99.99
2023-05-04T05:29:18.467Z,99.99
2023-05-04T05:30:18.532Z,99.99
2023-05-04T05:31:18.534Z,99.99
2023-05-04T05:32:18.539Z,99.99
2023-05-04T05:33:18.609Z,99.99
2023-05-04T05:34:18.591Z,99.99
2023-05-04T05:35:18.613Z,99.99
2023-05-04T05:36:18.637Z,99.99
2023-05-04T05:37:18.662Z,99.99
2023-05-04T05:38:18.851Z,99.99
2023-05-04T05:39:18.713Z,99.99
2023-05-04T05:40:18.756Z,99.99
2023-05-04T05:41:18.793Z,99.99
2023-05-04T05:42:18.793Z,99.99
2023-05-04T05:43:18.934Z,99.99
2023-05-04T05:44:18.839Z,99.99
2023-05-04T05:45:18.868Z,99.99
2023-05-04T05:46:18.935Z,99.99
2023-05-04T05:47:18.922Z,99.99
2023-05-04T05:48:18.947Z,99.99
2023-05-04T05:49:18.972Z,99.99
2023-05-04T05:50:19.016Z,99.99
2023-05-04T05:52:01.578Z,99.99
2023-05-04T05:53:01.609Z,99.99
2023-05-04T05:54:01.636Z,99.99
2023-05-04T05:55:02.748Z,99.99
2023-05-04T05:56:01.694Z,99.99
2023-05-04T05:57:01.806Z,99.99
2023-05-04T05:58:01.744Z,99.99
2023-05-04T05:59:01.780Z,99.99
2023-05-04T06:00:01.842Z,99.99
2023-05-04T06:01:01.824Z,99.99
2023-05-04T06:02:01.856Z,99.99
2023-05-04T06:03:02.069Z,99.99
2023-05-04T06:04:02.017Z,99.99
2023-05-04T06:05:02.129Z,99.99
2023-05-04T06:06:01.970Z,99.99
2023-05-04T06:07:02.001Z,99.99
2023-05-04T06:08:02.023Z,99.99
2023-05-04T06:09:02.058Z,99.99
2023-05-04T06:10:02.184Z,99.99
2023-05-04T06:11:02.115Z,99.99
2023-05-04T06:12:02.143Z,99.99
2023-05-04T06:13:02.229Z,99.99
2023-05-04T06:14:02.205Z,99.99
2023-05-04T06:15:02.246Z,99.99
2023-05-04T06:16:02.293Z,99.99
2023-05-04T06:17:02.297Z,99.99
2023-05-04T06:18:02.365Z,99.99
2023-05-04T06:19:02.371Z,99.99
2023-05-04T06:20:02.484Z,99.99
2023-05-04T06:21:02.430Z,99.99
2023-05-04T06:22:03.871Z,99.99
2023-05-04T06:23:02.504Z,99.99
2023-05-04T06:24:02.730Z,99.99
2023-05-04T06:25:07.129Z,99.99
2023-05-04T06:26:02.573Z,99.99
2023-05-04T06:27:02.608Z,99.99
2023-05-04T06:28:02.639Z,99.99
2023-05-04T06:29:02.699Z,99.99
2023-05-04T06:30:02.923Z,99.99
2023-05-04T06:31:02.743Z,99.99
2023-05-04T06:32:02.871Z,99.99
2023-05-04T06:33:02.868Z,99.99
2023-05-04T06:34:02.829Z,99.99
2023-05-04T06:35:02.980Z,99.99
2023-05-04T06:36:02.894Z,99.99
2023-05-04T06:37:02.931Z,99.99
2023-05-04T06:38:02.962Z,99.99
2023-05-04T06:39:02.987Z,99.99
2023-05-04T06:40:03.020Z,99.99
2023-05-04T06:41:03.056Z,99.99
2023-05-04T06:42:03.087Z,99.99
2023-05-04T06:43:03.117Z,99.99
2023-05-04T06:44:03.150Z,99.99
2023-05-04T06:45:03.266Z,99.99
2023-05-04T06:46:03.340Z,99.99
2023-05-04T06:47:03.256Z,99.99
2023-05-04T06:48:03.345Z,99.99
2023-05-04T06:49:03.324Z,99.99
2023-05-04T06:50:03.639Z,99.99
2023-05-04T06:51:03.382Z,99.99
2023-05-04T06:52:03.406Z,99.99
2023-05-04T06:53:03.447Z,98.96
2023-05-04T06:54:03.478Z,99.30
2023-05-04T06:55:03.506Z,98.44
2023-05-04T06:56:03.539Z,98.10
2023-05-04T06:57:03.700Z,96.56
2023-05-04T06:58:04.430Z,95.70
2023-05-04T06:59:03.688Z,96.47
2023-05-04T07:00:03.858Z,95.60
2023-05-04T07:01:03.876Z,94.97
2023-05-04T07:02:03.743Z,94.30
2023-05-04T07:03:03.827Z,92.85
2023-05-04T07:04:03.856Z,93.15
2023-05-04T07:05:04.714Z,92.66
2023-05-04T07:06:04.689Z,92.47
2023-05-04T07:07:03.910Z,92.85
2023-05-04T07:08:03.943Z,92.95
2023-05-04T07:09:03.973Z,93.33
2023-05-04T07:10:04.181Z,93.58
2023-05-04T07:11:04.044Z,92.71
2023-05-04T07:13:04.164Z,93.82
2023-05-04T07:14:04.148Z,93.63
2023-05-04T07:15:04.204Z,92.96
2023-05-04T07:16:04.253Z,93.10
2023-05-04T07:17:04.285Z,94.16
2023-05-04T07:18:04.345Z,94.64
2023-05-04T07:19:04.318Z,94.83
2023-05-04T07:20:04.552Z,94.59
2023-05-04T07:21:21.702Z,93.96
2023-05-04T07:22:04.427Z,92.47
2023-05-04T07:23:04.461Z,91.75
2023-05-04T07:25:04.527Z,90.55
2023-05-04T07:26:04.562Z,91.41
2023-05-04T07:27:04.811Z,91.46
2023-05-04T07:28:04.652Z,90.78
2023-05-04T07:29:04.673Z,90.10
2023-05-04T07:30:07.425Z,90.24
2023-05-04T07:31:04.755Z,89.33
2023-05-04T07:33:04.869Z,87.46
2023-05-04T07:34:04.848Z,88.18
2023-05-04T07:35:04.891Z,89.53
2023-05-04T07:36:04.913Z,90.11
2023-05-04T07:37:04.952Z,90.01
2023-05-04T07:38:05.008Z,90.97
2023-05-04T07:39:05.020Z,90.64
2023-05-04T07:40:05.365Z,90.06
2023-05-04T07:41:05.094Z,89.43
2023-05-04T07:42:05.128Z,88.56
2023-05-04T07:43:05.172Z,88.95
2023-05-04T07:44:05.200Z,89.43
2023-05-04T07:45:05.233Z,87.70
2023-05-04T07:46:05.312Z,86.58
2023-05-04T07:47:06.730Z,87.20
2023-05-04T07:48:05.365Z,86.52
2023-05-04T07:49:05.397Z,85.27
2023-05-04T07:50:05.678Z,84.89
2023-05-04T07:51:05.446Z,85.46
2023-05-04T07:52:05.713Z,83.87
2023-05-04T07:53:05.520Z,85.27
2023-05-04T07:54:05.555Z,84.21
2023-05-04T07:55:05.589Z,85.56
2023-05-04T07:56:05.628Z,83.67
2023-05-04T07:57:05.675Z,84.01
2023-05-04T07:58:05.704Z,84.21
2023-05-04T07:59:05.762Z,85.08
2023-05-04T08:00:05.989Z,84.78
2023-05-04T08:01:05.813Z,84.39
2023-05-04T08:02:05.880Z,83.66
2023-05-04T08:03:06.003Z,83.47
2023-05-04T08:04:05.919Z,83.31
2023-05-04T08:05:09.005Z,82.11
2023-05-04T08:06:06.145Z,82.69
2023-05-04T08:07:58.607Z,82.69
2023-05-04T08:08:58.647Z,82.11
2023-05-04T08:09:58.678Z,82.89
2023-05-04T08:11:11.970Z,83.27
2023-05-04T08:11:58.754Z,84.05
2023-05-04T08:12:59.007Z,83.99
2023-05-04T08:13:58.827Z,84.19
2023-05-04T08:14:58.866Z,83.31
2023-05-04T08:15:58.902Z,83.56
2023-05-04T08:16:58.945Z,84.28
2023-05-04T08:17:59.023Z,82.89
2023-05-04T08:18:59.018Z,82.15
2023-05-04T08:19:59.057Z,83.06
2023-05-04T08:20:59.118Z,83.30
2023-05-04T08:21:59.142Z,82.78
2023-05-04T08:22:59.170Z,81.37
2023-05-04T08:23:59.206Z,81.07
2023-05-04T08:24:59.247Z,81.07
2023-05-04T08:25:59.286Z,81.65
2023-05-04T08:27:08.159Z,80.59
2023-05-04T08:27:59.358Z,80.24
2023-05-04T08:28:59.401Z,80.15
2023-05-04T08:29:59.444Z,81.40
2023-05-04T08:30:59.476Z,80.92
2023-05-04T08:31:59.546Z,81.30
2023-05-04T08:32:59.583Z,81.65
2023-05-04T08:33:59.591Z,81.67
2023-05-04T08:34:59.636Z,81.77
2023-05-04T08:35:59.669Z,82.54
2023-05-04T08:36:59.902Z,82.64
2023-05-04T08:37:59.744Z,83.70
2023-05-04T08:38:59.785Z,83.51
2023-05-04T08:39:59.818Z,83.22
2023-05-04T08:40:59.857Z,82.97
2023-05-04T08:41:59.895Z,84.27
2023-05-04T08:42:59.937Z,82.14
2023-05-04T08:43:59.973Z,81.65
2023-05-04T08:45:00.020Z,81.71
2023-05-04T08:46:00.116Z,82.04
2023-05-04T08:47:00.088Z,82.14
2023-05-04T08:48:00.229Z,82.97
2023-05-04T08:49:00.169Z,82.83
2023-05-04T08:50:00.242Z,83.74
2023-05-04T08:51:00.317Z,83.74
2023-05-04T08:52:00.281Z,83.78
2023-05-04T08:53:00.520Z,83.88
2023-05-04T08:54:00.356Z,83.94
2023-05-04T08:55:00.400Z,83.78
2023-05-04T08:56:00.430Z,84.69
2023-05-04T08:57:00.473Z,84.08
2023-05-04T08:58:00.509Z,83.20
2023-05-04T08:59:00.553Z,83.01
2023-05-04T09:00:00.585Z,82.62
2023-05-04T09:01:00.789Z,82.23
2023-05-04T09:02:00.729Z,83.16
2023-05-04T09:03:00.771Z,83.88
2023-05-04T09:04:00.753Z,84.17
2023-05-04T09:05:00.776Z,82.53
2023-05-04T09:06:00.807Z,83.01
2023-05-04T09:07:00.857Z,83.25
2023-05-04T09:08:00.878Z,84.55
2023-05-04T09:09:01.046Z,83.86
2023-05-04T09:10:00.957Z,82.95
2023-05-04T09:11:00.997Z,82.66
2023-05-04T09:12:01.043Z,82.66
2023-05-04T09:13:01.155Z,82.72
2023-05-04T09:14:01.120Z,82.86
2023-05-04T09:15:01.217Z,82.86
2023-05-04T09:16:01.198Z,83.00
2023-05-04T09:17:01.280Z,81.87
2023-05-04T09:18:01.287Z,80.85
2023-05-04T09:19:01.296Z,81.47
2023-05-04T09:20:01.424Z,81.43
2023-05-04T09:21:01.370Z,80.67
2023-05-04T09:22:01.417Z,80.57
2023-05-04T09:23:01.449Z,81.83
2023-05-04T09:24:01.483Z,83.67
2023-05-04T09:25:01.663Z,83.91
2023-05-04T09:26:01.565Z,82.35
2023-05-04T09:27:01.597Z,81.29
2023-05-04T09:28:01.633Z,82.20
2023-05-04T09:29:01.671Z,80.80
2023-05-04T09:30:01.713Z,81.48
2023-05-04T09:31:01.758Z,80.77
2023-05-04T09:32:01.783Z,81.25
2023-05-04T09:33:01.863Z,81.60
2023-05-04T09:34:01.861Z,81.07
2023-05-04T09:35:01.935Z,83.30
2023-05-04T09:36:01.928Z,83.78
2023-05-04T09:37:02.167Z,83.78
2023-05-04T09:38:02.016Z,83.98
2023-05-04T09:39:02.055Z,84.08
2023-05-04T09:40:02.086Z,84.41
2023-05-04T09:41:02.138Z,81.93
2023-05-04T09:42:02.154Z,82.57
2023-05-04T09:43:02.206Z,83.59
2023-05-04T09:44:02.224Z,83.15
2023-05-04T09:45:02.381Z,83.05
2023-05-04T09:46:02.332Z,81.37
2023-05-04T09:47:02.333Z,82.43
2023-05-04T09:48:02.472Z,82.57
2023-05-04T09:49:02.400Z,81.95
2023-05-04T09:50:02.629Z,82.28
2023-05-04T09:51:02.485Z,82.08
2023-05-04T09:52:02.528Z,82.76
2023-05-04T09:53:02.549Z,82.57
2023-05-04T09:54:02.590Z,84.31
2023-05-04T09:55:02.821Z,81.79
2023-05-04T09:56:03.917Z,81.60
2023-05-04T09:57:02.714Z,81.79
2023-05-04T09:58:02.727Z,82.18
2023-05-04T09:59:02.787Z,82.28
2023-05-04T10:00:02.789Z,83.34
2023-05-04T10:01:02.838Z,82.08
2023-05-04T10:02:14.548Z,80.54
2023-05-04T10:03:02.918Z,80.73
2023-05-04T10:04:02.928Z,79.37
2023-05-04T10:05:03.225Z,80.54
2023-05-04T10:06:03.015Z,80.82
2023-05-04T10:07:03.039Z,80.30
2023-05-04T10:08:03.073Z,79.17
2023-05-04T10:09:03.107Z,79.57
2023-05-04T10:10:03.140Z,79.08
2023-05-04T10:11:03.175Z,78.44
2023-05-04T10:12:03.209Z,77.67
2023-05-04T10:13:03.399Z,76.56
2023-05-04T10:14:03.278Z,76.46
2023-05-04T10:15:03.523Z,78.34
2023-05-04T10:16:03.396Z,77.19
2023-05-04T10:17:03.383Z,76.66
2023-05-04T10:18:03.448Z,76.79
2023-05-04T10:19:03.452Z,76.64
2023-05-04T10:20:03.483Z,74.86
2023-05-04T10:21:03.544Z,75.24
2023-05-04T10:22:03.553Z,76.41
2023-05-04T10:23:03.595Z,77.67
2023-05-04T10:24:03.621Z,77.22
2023-05-04T10:25:03.843Z,77.61
2023-05-04T10:26:03.689Z,74.84
2023-05-04T10:27:03.739Z,76.48
2023-05-04T10:28:03.807Z,74.35
2023-05-04T10:29:03.901Z,73.28
2023-05-04T10:30:03.825Z,72.99
2023-05-04T10:31:03.863Z,73.86
2023-05-04T10:32:03.973Z,73.25
2023-05-04T10:33:03.987Z,73.15
2023-05-04T10:34:03.966Z,72.83
2023-05-04T10:35:04.239Z,74.18
2023-05-04T10:36:04.075Z,74.70
2023-05-04T10:37:04.087Z,73.73
2023-05-04T10:38:04.104Z,73.73
2023-05-04T10:39:04.141Z,74.99
2023-05-04T10:40:05.487Z,73.86
2023-05-04T10:41:04.208Z,73.48
2023-05-04T10:42:51.806Z,74.54
2023-05-04T10:43:51.846Z,73.44
2023-05-04T10:44:51.896Z,72.57
2023-05-04T10:45:51.925Z,73.83
2023-05-04T10:46:51.942Z,75.19
2023-05-04T10:47:51.984Z,75.09
2023-05-04T10:48:52.015Z,73.35
2023-05-04T10:49:52.045Z,73.35
2023-05-04T10:50:52.084Z,73.25
2023-05-04T10:51:52.126Z,73.15
2023-05-04T10:52:52.145Z,72.38
2023-05-04T10:53:52.204Z,72.47
2023-05-04T10:54:52.215Z,72.57
2023-05-04T10:55:52.253Z,71.12
2023-05-04T10:56:52.285Z,71.41
2023-05-04T10:57:52.321Z,72.99
2023-05-04T10:58:52.351Z,69.57
2023-05-04T10:59:52.390Z,69.41
2023-05-04T11:00:52.489Z,70.28
2023-05-04T11:01:52.456Z,69.21
2023-05-04T11:02:52.616Z,68.63
2023-05-04T11:03:52.597Z,68.73
2023-05-04T11:04:52.577Z,69.57
2023-05-04T11:05:52.590Z,70.28
2023-05-04T11:06:52.624Z,68.44
2023-05-04T11:07:52.659Z,68.60
2023-05-04T11:08:52.700Z,68.05
2023-05-04T11:09:52.728Z,69.95
2023-05-04T11:10:52.764Z,71.22
2023-05-04T11:11:52.797Z,70.92
2023-05-04T11:14:00.446Z,72.44
2023-05-04T11:15:00.485Z,73.21
2023-05-04T11:16:00.655Z,72.69
2023-05-04T11:17:00.555Z,72.50
2023-05-04T11:18:00.665Z,73.47
2023-05-04T11:19:00.616Z,72.56
2023-05-04T11:20:01.117Z,72.95
2023-05-04T11:22:00.731Z,75.17
2023-05-04T11:23:00.958Z,75.27
2023-05-04T11:25:18.421Z,75.85
2023-05-04T11:26:18.452Z,73.88
2023-05-04T11:28:01.036Z,73.49
2023-05-04T11:29:01.089Z,73.39
2023-05-04T11:30:01.281Z,74.07
2023-05-04T11:31:01.153Z,75.13
2023-05-04T11:32:01.419Z,74.17
2023-05-04T11:33:01.256Z,73.49
2023-05-04T11:34:01.238Z,73.49
2023-05-04T11:35:01.280Z,73.59
2023-05-04T11:36:01.297Z,73.97
2023-05-04T11:37:01.336Z,74.36
2023-05-04T11:38:01.365Z,74.07
2023-05-04T11:39:01.402Z,75.13
2023-05-04T11:42:34.136Z,75.00
2023-05-04T11:43:34.170Z,72.68
2023-05-04T11:44:34.198Z,73.26
2023-05-04T11:45:34.250Z,75.78
2023-05-04T11:46:34.321Z,75.97
2023-05-04T11:47:34.395Z,75.13
2023-05-04T11:49:34.384Z,73.36
2023-05-04T11:50:34.623Z,74.04
2023-05-04T11:51:34.952Z,74.90
2023-05-04T11:52:34.477Z,74.42
2023-05-04T11:53:34.519Z,75.10
2023-05-04T11:54:34.763Z,74.04
2023-05-04T11:55:34.573Z,74.42
2023-05-04T11:56:34.602Z,73.74
2023-05-04T11:57:34.635Z,74.32
2023-05-04T11:58:34.672Z,74.04
2023-05-04T12:08:35.945Z,73.55
2023-05-04T12:10:37.483Z,73.55
2023-05-04T12:42:45.177Z,74.38
2023-05-04T12:43:45.204Z,75.45
2023-05-04T12:44:45.235Z,75.54
2023-05-04T12:45:45.300Z,75.10
2023-05-04T12:46:45.303Z,75.68
2023-05-04T12:47:45.348Z,75.48
2023-05-04T12:48:45.364Z,77.90
2023-05-04T12:49:45.398Z,78.67
2023-05-04T12:50:45.453Z,75.29
2023-05-04T12:51:45.465Z,75.29
2023-05-04T12:52:45.510Z,75.10
2023-05-04T12:53:45.532Z,74.81
2023-05-04T12:54:45.557Z,75.97
2023-05-04T12:55:45.592Z,75.91
2023-05-04T12:56:45.620Z,76.97
2023-05-04T12:57:45.659Z,76.10
2023-05-04T12:58:45.898Z,74.85
2023-05-04T12:59:45.718Z,75.13
2023-05-04T13:00:46.116Z,74.36
2023-05-04T13:01:46.822Z,75.04
2023-05-04T13:06:48.287Z,75.10
2023-05-04T13:07:46.180Z,74.23
2023-05-04T13:08:46.215Z,73.88
2023-05-04T13:33:07.729Z,71.66
2023-05-04T13:34:01.981Z,72.91
2023-05-04T13:35:02.007Z,71.36
2023-05-04T13:36:02.156Z,73.01
2023-05-04T13:37:02.069Z,71.98
2023-05-04T13:38:02.100Z,75.17
2023-05-04T13:39:02.140Z,73.04
2023-05-04T13:40:05.391Z,72.36
2023-05-04T13:41:02.193Z,73.14
2023-05-04T13:42:02.221Z,71.40
2023-05-04T13:43:02.252Z,72.95
2023-05-04T13:44:02.284Z,70.92
2023-05-04T13:45:02.321Z,69.85
2023-05-04T13:46:02.368Z,72.04
2023-05-04T13:47:02.508Z,71.88
2023-05-04T13:48:02.448Z,71.11
2023-05-04T13:49:02.479Z,70.82
2023-05-04T13:50:02.482Z,70.92
2023-05-04T13:51:02.521Z,71.50
2023-05-04T13:52:02.566Z,71.50
2023-05-04T13:53:02.800Z,71.20
2023-05-04T13:54:02.984Z,71.20
2023-05-04T13:55:02.646Z,71.01
2023-05-04T13:56:02.677Z,71.50
2023-05-04T13:57:02.902Z,70.34
2023-05-04T13:58:02.944Z,69.85
2023-05-04T13:59:02.768Z,71.30
2023-05-04T14:00:07.674Z,72.75
2023-05-04T14:01:02.930Z,70.53
2023-05-04T14:02:02.889Z,70.43
2023-05-04T14:03:02.946Z,70.43
2023-05-04T14:04:02.935Z,69.04
2023-05-04T14:05:03.056Z,70.40
2023-05-04T14:06:02.995Z,70.30
2023-05-04T14:07:03.033Z,69.53
2023-05-04T14:08:03.097Z,69.53
2023-05-04T14:09:03.093Z,70.10
2023-05-04T14:10:03.124Z,70.88
2023-05-04T14:11:03.159Z,69.62
2023-05-04T14:12:03.192Z,70.59
2023-05-04T14:13:03.317Z,70.88
2023-05-04T14:14:03.255Z,70.68
2023-05-04T14:15:03.296Z,70.40
2023-05-04T14:16:03.343Z,70.30